Main page
METAR-TAF:

METAR-TAF

Airports :

Belfast City, Northern Ireland

George Best Belfast City Airport

latitude: 54-36N, longitude: 005-53W, elevation: 5 m

Current weather observation

The report was made 43 minutes ago, at 21:20 UTC
Wind 7 kt from the Northwest
Temperature 8°C
Humidity 87%
Pressure 1020 hPa
Visibility 10 km or more

METAR: EGAC 192120Z AUTO 32007KT 9999 NCD 08/06 Q1020

Time: 22:03 (22:03 UTC)

Forecast

The report was made 3 hours and 35 minutes ago, at 18:28 UTC
Forecast valid from 19 at 18 UTC to 19 at 22 UTC
Wind 8 kt from the Southwest
Visibility 10 km or more
Few clouds at a height of 1200 ft
Broken clouds at a height of 4000 ft
Temporary
from 19 at 18 UTC to 19 at 21 UTC
Visibility: 3000 m
Scattered clouds at a height of 700 ft
Broken clouds at a height of 1200 ft
rain, light rain, drizzle
Becoming
from 19 at 19 UTC to 19 at 21 UTC
Wind 10 kt from the Northwest

TAF: EGAC 191828Z 1918/1922 22008KT 9999 FEW012 BKN040 TEMPO 1918/1921 3000 RA -RADZ SCT007 BKN012 BECMG 1919/1921 31010KT

Weather observations and forecasts of more than 4000 airports (METAR and TAF reports).

The available stations are represented by yellow and red dots on the map.

Hover mouse over dot to see the name of the station.

Then click to see weather observations and forecasts.

To change the map : click on the green buttons with a black cross to zoom in, on the green button with a dash to zoom out, or on the green arrows for adjacent maps.


METAR-TAF: